sensor_id;sensor_type;location;lat;lon;timestamp;P1;durP1;ratioP1;P2;durP2;ratioP2
12956;SDS011;6543;48.836;10.092;2024-03-29T00:01:51;1.73;;;1.47;;
12956;SDS011;6543;48.836;10.092;2024-03-29T00:04:17;4.17;;;1.80;;
12956;SDS011;6543;48.836;10.092;2024-03-29T00:06:43;6.07;;;1.63;;
12956;SDS011;6543;48.836;10.092;2024-03-29T00:09:11;3.13;;;1.63;;
12956;SDS011;6543;48.836;10.092;2024-03-29T00:11:37;1.53;;;1.30;;
12956;SDS011;6543;48.836;10.092;2024-03-29T00:14:03;1.30;;;1.20;;
12956;SDS011;6543;48.836;10.092;2024-03-29T00:16:29;3.17;;;1.40;;
12956;SDS011;6543;48.836;10.092;2024-03-29T00:18:54;2.60;;;1.10;;
12956;SDS011;6543;48.836;10.092;2024-03-29T00:21:21;1.00;;;0.90;;
12956;SDS011;6543;48.836;10.092;2024-03-29T00:23:46;3.03;;;0.93;;
12956;SDS011;6543;48.836;10.092;2024-03-29T00:26:14;2.13;;;1.10;;
12956;SDS011;6543;48.836;10.092;2024-03-29T00:28:40;1.97;;;0.83;;
12956;SDS011;6543;48.836;10.092;2024-03-29T00:31:05;4.37;;;1.20;;
12956;SDS011;6543;48.836;10.092;2024-03-29T00:33:32;2.50;;;1.07;;
12956;SDS011;6543;48.836;10.092;2024-03-29T00:35:58;1.47;;;1.20;;
12956;SDS011;6543;48.836;10.092;2024-03-29T00:38:24;1.13;;;0.80;;
12956;SDS011;6543;48.836;10.092;2024-03-29T00:40:50;0.93;;;0.83;;
12956;SDS011;6543;48.836;10.092;2024-03-29T00:43:17;3.53;;;1.00;;
12956;SDS011;6543;48.836;10.092;2024-03-29T00:45:43;2.57;;;0.80;;
12956;SDS011;6543;48.836;10.092;2024-03-29T00:48:09;0.63;;;0.63;;
12956;SDS011;6543;48.836;10.092;2024-03-29T00:50:35;1.67;;;0.93;;
12956;SDS011;6543;48.836;10.092;2024-03-29T00:53:02;1.10;;;1.00;;
12956;SDS011;6543;48.836;10.092;2024-03-29T00:55:28;2.00;;;0.90;;
12956;SDS011;6543;48.836;10.092;2024-03-29T00:57:53;1.50;;;0.90;;
12956;SDS011;6543;48.836;10.092;2024-03-29T01:00:21;1.43;;;0.80;;
12956;SDS011;6543;48.836;10.092;2024-03-29T01:02:47;0.73;;;0.70;;
12956;SDS011;6543;48.836;10.092;2024-03-29T01:05:13;1.27;;;0.80;;
12956;SDS011;6543;48.836;10.092;2024-03-29T01:07:40;0.80;;;0.60;;
12956;SDS011;6543;48.836;10.092;2024-03-29T01:10:06;2.57;;;0.90;;
12956;SDS011;6543;48.836;10.092;2024-03-29T01:12:32;6.63;;;1.00;;
12956;SDS011;6543;48.836;10.092;2024-03-29T01:14:58;2.40;;;0.70;;
12956;SDS011;6543;48.836;10.092;2024-03-29T01:17:26;6.00;;;2.03;;
12956;SDS011;6543;48.836;10.092;2024-03-29T01:19:52;1.97;;;0.80;;
12956;SDS011;6543;48.836;10.092;2024-03-29T01:22:17;1.00;;;0.90;;
12956;SDS011;6543;48.836;10.092;2024-03-29T01:24:43;1.80;;;1.10;;
12956;SDS011;6543;48.836;10.092;2024-03-29T01:27:09;1.93;;;1.13;;
12956;SDS011;6543;48.836;10.092;2024-03-29T01:29:35;1.80;;;1.10;;
12956;SDS011;6543;48.836;10.092;2024-03-29T01:32:01;1.57;;;0.87;;
12956;SDS011;6543;48.836;10.092;2024-03-29T01:34:28;2.43;;;1.20;;
12956;SDS011;6543;48.836;10.092;2024-03-29T01:36:54;1.43;;;0.80;;
12956;SDS011;6543;48.836;10.092;2024-03-29T01:39:20;1.13;;;1.00;;
12956;SDS011;6543;48.836;10.092;2024-03-29T01:41:46;1.80;;;1.17;;
12956;SDS011;6543;48.836;10.092;2024-03-29T01:44:12;1.53;;;1.00;;
12956;SDS011;6543;48.836;10.092;2024-03-29T01:46:39;1.13;;;1.07;;
12956;SDS011;6543;48.836;10.092;2024-03-29T01:49:06;1.37;;;0.80;;
12956;SDS011;6543;48.836;10.092;2024-03-29T01:51:36;1.27;;;0.93;;
12956;SDS011;6543;48.836;10.092;2024-03-29T01:54:05;1.23;;;0.80;;
12956;SDS011;6543;48.836;10.092;2024-03-29T01:56:32;1.13;;;0.87;;
12956;SDS011;6543;48.836;10.092;2024-03-29T01:59:01;1.13;;;0.80;;
12956;SDS011;6543;48.836;10.092;2024-03-29T02:01:30;1.00;;;0.87;;
12956;SDS011;6543;48.836;10.092;2024-03-29T02:03:57;1.40;;;1.07;;
12956;SDS011;6543;48.836;10.092;2024-03-29T02:06:24;1.10;;;1.00;;
12956;SDS011;6543;48.836;10.092;2024-03-29T02:08:53;1.63;;;1.03;;
12956;SDS011;6543;48.836;10.092;2024-03-29T02:11:20;1.73;;;1.30;;
12956;SDS011;6543;48.836;10.092;2024-03-29T02:13:48;3.93;;;1.23;;
12956;SDS011;6543;48.836;10.092;2024-03-29T02:16:15;1.33;;;1.00;;
12956;SDS011;6543;48.836;10.092;2024-03-29T02:18:41;5.73;;;1.07;;
12956;SDS011;6543;48.836;10.092;2024-03-29T02:21:08;0.93;;;0.70;;
12956;SDS011;6543;48.836;10.092;2024-03-29T02:23:36;3.37;;;1.00;;
12956;SDS011;6543;48.836;10.092;2024-03-29T02:26:05;2.50;;;0.80;;
12956;SDS011;6543;48.836;10.092;2024-03-29T02:28:32;0.80;;;0.67;;
12956;SDS011;6543;48.836;10.092;2024-03-29T02:30:59;1.93;;;0.70;;
12956;SDS011;6543;48.836;10.092;2024-03-29T02:33:26;0.60;;;0.60;;
12956;SDS011;6543;48.836;10.092;2024-03-29T02:35:52;1.47;;;0.83;;
12956;SDS011;6543;48.836;10.092;2024-03-29T02:38:19;0.70;;;0.70;;
12956;SDS011;6543;48.836;10.092;2024-03-29T02:40:46;1.07;;;0.60;;
12956;SDS011;6543;48.836;10.092;2024-03-29T02:43:14;0.67;;;0.60;;
12956;SDS011;6543;48.836;10.092;2024-03-29T02:45:43;0.90;;;0.70;;
12956;SDS011;6543;48.836;10.092;2024-03-29T02:48:09;1.43;;;0.90;;
12956;SDS011;6543;48.836;10.092;2024-03-29T02:50:35;0.97;;;0.87;;
12956;SDS011;6543;48.836;10.092;2024-03-29T02:53:02;1.23;;;1.00;;
12956;SDS011;6543;48.836;10.092;2024-03-29T02:55:28;1.03;;;0.60;;
12956;SDS011;6543;48.836;10.092;2024-03-29T02:57:55;0.50;;;0.50;;
12956;SDS011;6543;48.836;10.092;2024-03-29T03:00:22;0.97;;;0.43;;
12956;SDS011;6543;48.836;10.092;2024-03-29T03:02:49;0.40;;;0.30;;
12956;SDS011;6543;48.836;10.092;2024-03-29T03:05:15;0.43;;;0.40;;
12956;SDS011;6543;48.836;10.092;2024-03-29T03:07:41;3.07;;;0.60;;
12956;SDS011;6543;48.836;10.092;2024-03-29T03:10:26;2.03;;;0.83;;
12956;SDS011;6543;48.836;10.092;2024-03-29T03:13:09;0.83;;;0.60;;
12956;SDS011;6543;48.836;10.092;2024-03-29T03:15:37;2.10;;;0.67;;
12956;SDS011;6543;48.836;10.092;2024-03-29T03:18:04;0.70;;;0.50;;
12956;SDS011;6543;48.836;10.092;2024-03-29T03:20:30;0.73;;;0.50;;
12956;SDS011;6543;48.836;10.092;2024-03-29T03:22:58;0.50;;;0.50;;
12956;SDS011;6543;48.836;10.092;2024-03-29T03:25:24;1.67;;;0.80;;
12956;SDS011;6543;48.836;10.092;2024-03-29T03:27:51;2.57;;;1.00;;
12956;SDS011;6543;48.836;10.092;2024-03-29T03:30:20;2.07;;;0.73;;
12956;SDS011;6543;48.836;10.092;2024-03-29T03:32:48;1.33;;;0.80;;
12956;SDS011;6543;48.836;10.092;2024-03-29T03:35:14;2.20;;;0.50;;
12956;SDS011;6543;48.836;10.092;2024-03-29T03:37:41;0.67;;;0.57;;
12956;SDS011;6543;48.836;10.092;2024-03-29T03:40:07;3.57;;;0.90;;
12956;SDS011;6543;48.836;10.092;2024-03-29T03:42:36;0.80;;;0.70;;
12956;SDS011;6543;48.836;10.092;2024-03-29T03:45:02;4.33;;;1.00;;
12956;SDS011;6543;48.836;10.092;2024-03-29T03:47:30;0.20;;;0.20;;
12956;SDS011;6543;48.836;10.092;2024-03-29T03:49:57;0.50;;;0.50;;
12956;SDS011;6543;48.836;10.092;2024-03-29T03:52:24;0.67;;;0.60;;
12956;SDS011;6543;48.836;10.092;2024-03-29T03:54:50;3.87;;;0.73;;
12956;SDS011;6543;48.836;10.092;2024-03-29T03:57:17;0.97;;;0.60;;
12956;SDS011;6543;48.836;10.092;2024-03-29T03:59:43;0.60;;;0.60;;
12956;SDS011;6543;48.836;10.092;2024-03-29T04:02:09;0.60;;;0.40;;
12956;SDS011;6543;48.836;10.092;2024-03-29T04:04:35;1.73;;;0.70;;
12956;SDS011;6543;48.836;10.092;2024-03-29T04:07:04;0.70;;;0.70;;
12956;SDS011;6543;48.836;10.092;2024-03-29T04:09:30;2.30;;;0.90;;
12956;SDS011;6543;48.836;10.092;2024-03-29T04:11:57;0.67;;;0.67;;
12956;SDS011;6543;48.836;10.092;2024-03-29T04:14:23;0.80;;;0.60;;
12956;SDS011;6543;48.836;10.092;2024-03-29T04:16:50;1.10;;;0.80;;
12956;SDS011;6543;48.836;10.092;2024-03-29T04:19:15;0.60;;;0.60;;
12956;SDS011;6543;48.836;10.092;2024-03-29T04:21:42;0.77;;;0.50;;
12956;SDS011;6543;48.836;10.092;2024-03-29T04:24:10;0.70;;;0.70;;
12956;SDS011;6543;48.836;10.092;2024-03-29T04:26:36;3.30;;;0.53;;
12956;SDS011;6543;48.836;10.092;2024-03-29T04:29:03;1.00;;;0.90;;
12956;SDS011;6543;48.836;10.092;2024-03-29T04:31:30;1.33;;;0.60;;
12956;SDS011;6543;48.836;10.092;2024-03-29T04:33:56;1.57;;;0.73;;
12956;SDS011;6543;48.836;10.092;2024-03-29T04:36:23;1.17;;;0.40;;
12956;SDS011;6543;48.836;10.092;2024-03-29T04:38:49;0.53;;;0.53;;
12956;SDS011;6543;48.836;10.092;2024-03-29T04:41:17;1.27;;;0.60;;
12956;SDS011;6543;48.836;10.092;2024-03-29T04:43:44;2.47;;;0.77;;
12956;SDS011;6543;48.836;10.092;2024-03-29T04:46:13;0.87;;;0.60;;
12956;SDS011;6543;48.836;10.092;2024-03-29T04:48:41;1.17;;;0.53;;
12956;SDS011;6543;48.836;10.092;2024-03-29T04:51:10;0.47;;;0.47;;
12956;SDS011;6543;48.836;10.092;2024-03-29T04:53:38;5.37;;;0.70;;
12956;SDS011;6543;48.836;10.092;2024-03-29T04:56:05;1.73;;;0.53;;
12956;SDS011;6543;48.836;10.092;2024-03-29T04:58:34;0.63;;;0.63;;
12956;SDS011;6543;48.836;10.092;2024-03-29T05:01:01;0.73;;;0.70;;
12956;SDS011;6543;48.836;10.092;2024-03-29T05:03:27;0.80;;;0.53;;
12956;SDS011;6543;48.836;10.092;2024-03-29T05:05:56;1.03;;;0.50;;
12956;SDS011;6543;48.836;10.092;2024-03-29T05:08:24;1.60;;;0.53;;
12956;SDS011;6543;48.836;10.092;2024-03-29T05:10:51;1.60;;;0.43;;
12956;SDS011;6543;48.836;10.092;2024-03-29T05:13:18;3.40;;;0.70;;
12956;SDS011;6543;48.836;10.092;2024-03-29T05:15:47;0.47;;;0.40;;
12956;SDS011;6543;48.836;10.092;2024-03-29T05:18:14;0.40;;;0.40;;
12956;SDS011;6543;48.836;10.092;2024-03-29T05:20:41;0.67;;;0.50;;
12956;SDS011;6543;48.836;10.092;2024-03-29T05:23:12;0.63;;;0.50;;
12956;SDS011;6543;48.836;10.092;2024-03-29T05:25:39;0.40;;;0.40;;
12956;SDS011;6543;48.836;10.092;2024-03-29T05:28:06;0.20;;;0.20;;
12956;SDS011;6543;48.836;10.092;2024-03-29T05:30:33;0.40;;;0.40;;
12956;SDS011;6543;48.836;10.092;2024-03-29T05:33:02;0.20;;;0.20;;
12956;SDS011;6543;48.836;10.092;2024-03-29T05:35:29;0.60;;;0.40;;
12956;SDS011;6543;48.836;10.092;2024-03-29T05:37:56;0.50;;;0.47;;
12956;SDS011;6543;48.836;10.092;2024-03-29T05:40:23;0.40;;;0.40;;
12956;SDS011;6543;48.836;10.092;2024-03-29T05:42:52;0.90;;;0.57;;
12956;SDS011;6543;48.836;10.092;2024-03-29T05:45:23;0.70;;;0.70;;
12956;SDS011;6543;48.836;10.092;2024-03-29T05:47:52;2.33;;;0.50;;
12956;SDS011;6543;48.836;10.092;2024-03-29T05:50:21;0.60;;;0.60;;
12956;SDS011;6543;48.836;10.092;2024-03-29T05:52:48;1.50;;;1.03;;
12956;SDS011;6543;48.836;10.092;2024-03-29T05:55:16;0.50;;;0.50;;
12956;SDS011;6543;48.836;10.092;2024-03-29T05:57:43;0.57;;;0.43;;
12956;SDS011;6543;48.836;10.092;2024-03-29T06:00:11;0.60;;;0.60;;
12956;SDS011;6543;48.836;10.092;2024-03-29T06:02:40;0.33;;;0.33;;
12956;SDS011;6543;48.836;10.092;2024-03-29T06:05:08;0.40;;;0.40;;
12956;SDS011;6543;48.836;10.092;2024-03-29T06:07:36;0.50;;;0.50;;
12956;SDS011;6543;48.836;10.092;2024-03-29T06:10:04;1.00;;;0.60;;
12956;SDS011;6543;48.836;10.092;2024-03-29T06:12:32;0.90;;;0.50;;
12956;SDS011;6543;48.836;10.092;2024-03-29T06:15:01;0.77;;;0.50;;
12956;SDS011;6543;48.836;10.092;2024-03-29T06:17:46;0.60;;;0.53;;
12956;SDS011;6543;48.836;10.092;2024-03-29T06:20:12;0.83;;;0.53;;
12956;SDS011;6543;48.836;10.092;2024-03-29T06:22:41;0.50;;;0.43;;
12956;SDS011;6543;48.836;10.092;2024-03-29T06:25:08;0.90;;;0.50;;
12956;SDS011;6543;48.836;10.092;2024-03-29T06:27:35;1.30;;;0.70;;
12956;SDS011;6543;48.836;10.092;2024-03-29T06:30:03;0.50;;;0.50;;
12956;SDS011;6543;48.836;10.092;2024-03-29T06:32:33;0.30;;;0.30;;
12956;SDS011;6543;48.836;10.092;2024-03-29T06:35:02;2.17;;;0.60;;
12956;SDS011;6543;48.836;10.092;2024-03-29T06:37:29;0.90;;;0.40;;
12956;SDS011;6543;48.836;10.092;2024-03-29T06:39:57;0.47;;;0.47;;
12956;SDS011;6543;48.836;10.092;2024-03-29T06:42:24;0.73;;;0.53;;
12956;SDS011;6543;48.836;10.092;2024-03-29T06:44:51;0.60;;;0.60;;
12956;SDS011;6543;48.836;10.092;2024-03-29T06:47:19;0.40;;;0.40;;
12956;SDS011;6543;48.836;10.092;2024-03-29T06:49:47;0.73;;;0.40;;
12956;SDS011;6543;48.836;10.092;2024-03-29T06:52:14;0.50;;;0.43;;
12956;SDS011;6543;48.836;10.092;2024-03-29T06:54:41;0.40;;;0.40;;
12956;SDS011;6543;48.836;10.092;2024-03-29T06:57:12;0.90;;;0.50;;
12956;SDS011;6543;48.836;10.092;2024-03-29T06:59:42;0.43;;;0.43;;
12956;SDS011;6543;48.836;10.092;2024-03-29T07:02:09;1.23;;;0.70;;
12956;SDS011;6543;48.836;10.092;2024-03-29T07:04:41;0.40;;;0.40;;
12956;SDS011;6543;48.836;10.092;2024-03-29T07:07:08;1.00;;;0.70;;
12956;SDS011;6543;48.836;10.092;2024-03-29T07:09:35;0.73;;;0.73;;
12956;SDS011;6543;48.836;10.092;2024-03-29T07:12:02;1.23;;;0.40;;
12956;SDS011;6543;48.836;10.092;2024-03-29T07:14:30;0.87;;;0.50;;
12956;SDS011;6543;48.836;10.092;2024-03-29T07:16:58;1.47;;;1.00;;
12956;SDS011;6543;48.836;10.092;2024-03-29T07:19:25;0.63;;;0.60;;
12956;SDS011;6543;48.836;10.092;2024-03-29T07:21:52;1.73;;;0.80;;
12956;SDS011;6543;48.836;10.092;2024-03-29T07:24:19;0.40;;;0.40;;
12956;SDS011;6543;48.836;10.092;2024-03-29T07:26:46;0.57;;;0.47;;
12956;SDS011;6543;48.836;10.092;2024-03-29T07:29:13;0.50;;;0.50;;
12956;SDS011;6543;48.836;10.092;2024-03-29T07:31:41;0.70;;;0.50;;
12956;SDS011;6543;48.836;10.092;2024-03-29T07:34:10;1.10;;;1.00;;
12956;SDS011;6543;48.836;10.092;2024-03-29T07:36:36;1.23;;;0.63;;
12956;SDS011;6543;48.836;10.092;2024-03-29T07:39:05;1.37;;;0.87;;
12956;SDS011;6543;48.836;10.092;2024-03-29T07:41:32;4.70;;;1.00;;
12956;SDS011;6543;48.836;10.092;2024-03-29T07:43:59;0.70;;;0.67;;
12956;SDS011;6543;48.836;10.092;2024-03-29T07:46:28;1.27;;;0.83;;
12956;SDS011;6543;48.836;10.092;2024-03-29T07:48:57;0.50;;;0.50;;
12956;SDS011;6543;48.836;10.092;2024-03-29T07:51:24;1.23;;;0.67;;
12956;SDS011;6543;48.836;10.092;2024-03-29T07:53:51;0.60;;;0.60;;
12956;SDS011;6543;48.836;10.092;2024-03-29T07:56:18;0.50;;;0.50;;
12956;SDS011;6543;48.836;10.092;2024-03-29T07:58:46;2.20;;;0.67;;
12956;SDS011;6543;48.836;10.092;2024-03-29T08:01:17;0.77;;;0.63;;
12956;SDS011;6543;48.836;10.092;2024-03-29T08:03:45;0.90;;;0.73;;
12956;SDS011;6543;48.836;10.092;2024-03-29T08:06:14;1.33;;;0.70;;
12956;SDS011;6543;48.836;10.092;2024-03-29T08:08:44;1.17;;;1.07;;
12956;SDS011;6543;48.836;10.092;2024-03-29T08:11:11;0.60;;;0.60;;
12956;SDS011;6543;48.836;10.092;2024-03-29T08:13:38;0.70;;;0.60;;
12956;SDS011;6543;48.836;10.092;2024-03-29T08:16:06;2.30;;;0.40;;
12956;SDS011;6543;48.836;10.092;2024-03-29T08:18:33;1.60;;;0.50;;
12956;SDS011;6543;48.836;10.092;2024-03-29T08:21:00;2.30;;;0.70;;
12956;SDS011;6543;48.836;10.092;2024-03-29T08:23:29;0.70;;;0.70;;
12956;SDS011;6543;48.836;10.092;2024-03-29T08:25:56;0.97;;;0.60;;
12956;SDS011;6543;48.836;10.092;2024-03-29T08:28:23;1.03;;;0.60;;
12956;SDS011;6543;48.836;10.092;2024-03-29T08:30:57;1.23;;;0.67;;
12956;SDS011;6543;48.836;10.092;2024-03-29T08:33:24;0.80;;;0.80;;
12956;SDS011;6543;48.836;10.092;2024-03-29T08:35:52;0.63;;;0.63;;
12956;SDS011;6543;48.836;10.092;2024-03-29T08:38:19;1.27;;;0.60;;
12956;SDS011;6543;48.836;10.092;2024-03-29T08:40:46;0.83;;;0.60;;
12956;SDS011;6543;48.836;10.092;2024-03-29T08:43:15;0.97;;;0.67;;
12956;SDS011;6543;48.836;10.092;2024-03-29T08:45:43;0.47;;;0.40;;
12956;SDS011;6543;48.836;10.092;2024-03-29T08:48:10;0.70;;;0.53;;
12956;SDS011;6543;48.836;10.092;2024-03-29T08:50:37;0.57;;;0.57;;
12956;SDS011;6543;48.836;10.092;2024-03-29T08:53:04;2.77;;;0.50;;
12956;SDS011;6543;48.836;10.092;2024-03-29T08:55:31;0.80;;;0.57;;
12956;SDS011;6543;48.836;10.092;2024-03-29T08:58:01;0.50;;;0.50;;
12956;SDS011;6543;48.836;10.092;2024-03-29T09:00:28;1.17;;;0.97;;
12956;SDS011;6543;48.836;10.092;2024-03-29T09:02:56;3.33;;;1.07;;
12956;SDS011;6543;48.836;10.092;2024-03-29T09:05:23;0.80;;;0.80;;
12956;SDS011;6543;48.836;10.092;2024-03-29T09:07:52;1.50;;;0.77;;
12956;SDS011;6543;48.836;10.092;2024-03-29T09:27:56;0.70;;;0.70;;
12956;SDS011;6543;48.836;10.092;2024-03-29T09:30:23;1.03;;;0.80;;
12956;SDS011;6543;48.836;10.092;2024-03-29T09:32:50;0.63;;;0.50;;
12956;SDS011;6543;48.836;10.092;2024-03-29T09:35:17;0.63;;;0.60;;
12956;SDS011;6543;48.836;10.092;2024-03-29T09:37:45;1.00;;;0.93;;
12956;SDS011;6543;48.836;10.092;2024-03-29T09:40:12;1.30;;;0.90;;
12956;SDS011;6543;48.836;10.092;2024-03-29T09:42:40;1.43;;;0.90;;
12956;SDS011;6543;48.836;10.092;2024-03-29T09:45:11;1.10;;;1.00;;
12956;SDS011;6543;48.836;10.092;2024-03-29T09:47:38;3.53;;;1.03;;
12956;SDS011;6543;48.836;10.092;2024-03-29T09:50:07;0.70;;;0.70;;
12956;SDS011;6543;48.836;10.092;2024-03-29T09:52:34;2.40;;;0.93;;
12956;SDS011;6543;48.836;10.092;2024-03-29T09:55:03;2.20;;;1.47;;
12956;SDS011;6543;48.836;10.092;2024-03-29T09:57:32;1.30;;;1.00;;
12956;SDS011;6543;48.836;10.092;2024-03-29T09:59:59;1.57;;;1.47;;
12956;SDS011;6543;48.836;10.092;2024-03-29T10:02:27;2.20;;;1.30;;
12956;SDS011;6543;48.836;10.092;2024-03-29T10:04:57;1.27;;;1.13;;
12956;SDS011;6543;48.836;10.092;2024-03-29T10:07:28;2.83;;;2.37;;
12956;SDS011;6543;48.836;10.092;2024-03-29T10:09:57;2.03;;;1.60;;
12956;SDS011;6543;48.836;10.092;2024-03-29T10:12:24;1.60;;;1.43;;
12956;SDS011;6543;48.836;10.092;2024-03-29T10:14:51;1.57;;;1.20;;
12956;SDS011;6543;48.836;10.092;2024-03-29T10:17:22;3.07;;;1.10;;
12956;SDS011;6543;48.836;10.092;2024-03-29T10:19:51;1.37;;;1.27;;
12956;SDS011;6543;48.836;10.092;2024-03-29T10:22:17;1.60;;;0.90;;
12956;SDS011;6543;48.836;10.092;2024-03-29T10:24:44;1.17;;;1.07;;
12956;SDS011;6543;48.836;10.092;2024-03-29T10:27:12;3.37;;;1.30;;
12956;SDS011;6543;48.836;10.092;2024-03-29T10:29:41;1.47;;;1.03;;
12956;SDS011;6543;48.836;10.092;2024-03-29T10:32:07;2.53;;;2.10;;
12956;SDS011;6543;48.836;10.092;2024-03-29T10:34:35;2.83;;;1.63;;
12956;SDS011;6543;48.836;10.092;2024-03-29T10:37:04;2.50;;;1.10;;
12956;SDS011;6543;48.836;10.092;2024-03-29T10:39:31;2.00;;;1.40;;
12956;SDS011;6543;48.836;10.092;2024-03-29T10:41:59;2.83;;;1.10;;
12956;SDS011;6543;48.836;10.092;2024-03-29T10:44:26;2.20;;;1.40;;
12956;SDS011;6543;48.836;10.092;2024-03-29T10:46:54;1.20;;;0.70;;
12956;SDS011;6543;48.836;10.092;2024-03-29T10:49:23;1.33;;;0.93;;
12956;SDS011;6543;48.836;10.092;2024-03-29T10:51:50;0.90;;;0.70;;
12956;SDS011;6543;48.836;10.092;2024-03-29T10:54:23;1.53;;;0.93;;
12956;SDS011;6543;48.836;10.092;2024-03-29T10:56:52;1.37;;;0.90;;
12956;SDS011;6543;48.836;10.092;2024-03-29T10:59:27;0.70;;;0.70;;
12956;SDS011;6543;48.836;10.092;2024-03-29T11:01:59;1.17;;;0.77;;
12956;SDS011;6543;48.836;10.092;2024-03-29T11:04:28;1.17;;;0.73;;
12956;SDS011;6543;48.836;10.092;2024-03-29T11:06:59;0.87;;;0.80;;
12956;SDS011;6543;48.836;10.092;2024-03-29T11:09:34;1.23;;;0.87;;
12956;SDS011;6543;48.836;10.092;2024-03-29T11:12:02;1.10;;;0.90;;
12956;SDS011;6543;48.836;10.092;2024-03-29T11:14:33;5.63;;;1.10;;
12956;SDS011;6543;48.836;10.092;2024-03-29T11:17:03;1.70;;;1.10;;
12956;SDS011;6543;48.836;10.092;2024-03-29T11:19:30;1.30;;;1.10;;
12956;SDS011;6543;48.836;10.092;2024-03-29T11:21:57;1.10;;;1.00;;
12956;SDS011;6543;48.836;10.092;2024-03-29T11:24:26;2.10;;;1.40;;
12956;SDS011;6543;48.836;10.092;2024-03-29T11:26:55;1.50;;;1.10;;
12956;SDS011;6543;48.836;10.092;2024-03-29T11:29:22;1.80;;;0.97;;
12956;SDS011;6543;48.836;10.092;2024-03-29T11:31:55;1.03;;;0.83;;
12956;SDS011;6543;48.836;10.092;2024-03-29T11:34:24;0.80;;;0.77;;
12956;SDS011;6543;48.836;10.092;2024-03-29T11:36:51;5.20;;;1.20;;
12956;SDS011;6543;48.836;10.092;2024-03-29T11:39:21;1.17;;;1.07;;
12956;SDS011;6543;48.836;10.092;2024-03-29T11:41:49;0.93;;;0.87;;
12956;SDS011;6543;48.836;10.092;2024-03-29T11:44:17;1.33;;;1.00;;
12956;SDS011;6543;48.836;10.092;2024-03-29T11:46:44;0.90;;;0.83;;
12956;SDS011;6543;48.836;10.092;2024-03-29T11:49:12;2.63;;;1.00;;
12956;SDS011;6543;48.836;10.092;2024-03-29T11:51:40;1.00;;;0.90;;
12956;SDS011;6543;48.836;10.092;2024-03-29T11:54:08;3.20;;;0.97;;
12956;SDS011;6543;48.836;10.092;2024-03-29T11:56:35;1.57;;;0.60;;
12956;SDS011;6543;48.836;10.092;2024-03-29T11:59:02;2.70;;;1.00;;
12956;SDS011;6543;48.836;10.092;2024-03-29T12:01:31;2.23;;;1.07;;
12956;SDS011;6543;48.836;10.092;2024-03-29T12:03:59;1.77;;;1.10;;
12956;SDS011;6543;48.836;10.092;2024-03-29T12:06:27;1.30;;;0.87;;
12956;SDS011;6543;48.836;10.092;2024-03-29T12:08:54;0.80;;;0.80;;
12956;SDS011;6543;48.836;10.092;2024-03-29T12:11:22;1.37;;;1.27;;
12956;SDS011;6543;48.836;10.092;2024-03-29T12:13:49;3.63;;;1.60;;
12956;SDS011;6543;48.836;10.092;2024-03-29T12:16:16;2.03;;;1.50;;
12956;SDS011;6543;48.836;10.092;2024-03-29T12:18:46;1.57;;;1.47;;
12956;SDS011;6543;48.836;10.092;2024-03-29T12:21:13;1.87;;;1.20;;
12956;SDS011;6543;48.836;10.092;2024-03-29T12:23:46;2.13;;;1.20;;
12956;SDS011;6543;48.836;10.092;2024-03-29T12:26:14;1.23;;;1.10;;
12956;SDS011;6543;48.836;10.092;2024-03-29T12:28:42;1.37;;;1.20;;
12956;SDS011;6543;48.836;10.092;2024-03-29T12:31:10;1.57;;;1.07;;
12956;SDS011;6543;48.836;10.092;2024-03-29T12:33:37;3.20;;;1.23;;
12956;SDS011;6543;48.836;10.092;2024-03-29T12:36:06;1.83;;;1.00;;
12956;SDS011;6543;48.836;10.092;2024-03-29T12:38:33;2.23;;;1.20;;
12956;SDS011;6543;48.836;10.092;2024-03-29T12:41:00;1.20;;;0.97;;
12956;SDS011;6543;48.836;10.092;2024-03-29T12:43:27;3.30;;;1.20;;
12956;SDS011;6543;48.836;10.092;2024-03-29T12:45:54;1.63;;;1.10;;
12956;SDS011;6543;48.836;10.092;2024-03-29T12:48:23;2.00;;;0.90;;
12956;SDS011;6543;48.836;10.092;2024-03-29T12:50:50;1.47;;;0.87;;
12956;SDS011;6543;48.836;10.092;2024-03-29T12:53:18;1.30;;;1.13;;
12956;SDS011;6543;48.836;10.092;2024-03-29T12:55:46;3.80;;;1.17;;
12956;SDS011;6543;48.836;10.092;2024-03-29T12:58:14;1.47;;;1.00;;
12956;SDS011;6543;48.836;10.092;2024-03-29T13:00:43;1.30;;;1.20;;
12956;SDS011;6543;48.836;10.092;2024-03-29T13:03:10;1.30;;;0.90;;
12956;SDS011;6543;48.836;10.092;2024-03-29T13:05:37;1.30;;;1.00;;
12956;SDS011;6543;48.836;10.092;2024-03-29T13:08:07;1.17;;;0.90;;
12956;SDS011;6543;48.836;10.092;2024-03-29T13:10:37;1.50;;;1.00;;
12956;SDS011;6543;48.836;10.092;2024-03-29T13:13:05;2.05;;;0.80;;
12956;SDS011;6543;48.836;10.092;2024-03-29T13:15:32;0.97;;;0.80;;
12956;SDS011;6543;48.836;10.092;2024-03-29T13:18:00;2.10;;;1.00;;
12956;SDS011;6543;48.836;10.092;2024-03-29T13:20:29;2.60;;;1.07;;
12956;SDS011;6543;48.836;10.092;2024-03-29T13:22:58;2.63;;;0.90;;
12956;SDS011;6543;48.836;10.092;2024-03-29T13:25:26;1.10;;;0.95;;
12956;SDS011;6543;48.836;10.092;2024-03-29T13:27:54;1.40;;;1.10;;
12956;SDS011;6543;48.836;10.092;2024-03-29T13:30:22;1.67;;;1.13;;
12956;SDS011;6543;48.836;10.092;2024-03-29T13:32:50;1.43;;;1.30;;
12956;SDS011;6543;48.836;10.092;2024-03-29T13:35:17;1.43;;;1.00;;
12956;SDS011;6543;48.836;10.092;2024-03-29T13:37:46;1.37;;;1.10;;
12956;SDS011;6543;48.836;10.092;2024-03-29T13:40:15;2.17;;;1.10;;
12956;SDS011;6543;48.836;10.092;2024-03-29T13:42:42;1.50;;;0.80;;
12956;SDS011;6543;48.836;10.092;2024-03-29T13:45:11;1.57;;;1.20;;
12956;SDS011;6543;48.836;10.092;2024-03-29T13:47:38;3.17;;;1.03;;
12956;SDS011;6543;48.836;10.092;2024-03-29T13:50:07;2.87;;;0.93;;
12956;SDS011;6543;48.836;10.092;2024-03-29T13:52:35;1.23;;;0.90;;
12956;SDS011;6543;48.836;10.092;2024-03-29T13:55:05;1.67;;;1.00;;
12956;SDS011;6543;48.836;10.092;2024-03-29T13:57:32;1.17;;;1.00;;
12956;SDS011;6543;48.836;10.092;2024-03-29T13:59:59;1.10;;;0.80;;
12956;SDS011;6543;48.836;10.092;2024-03-29T14:02:28;1.27;;;0.80;;
12956;SDS011;6543;48.836;10.092;2024-03-29T14:04:55;1.87;;;0.90;;
12956;SDS011;6543;48.836;10.092;2024-03-29T14:07:23;1.63;;;1.20;;
12956;SDS011;6543;48.836;10.092;2024-03-29T14:09:51;2.17;;;1.20;;
12956;SDS011;6543;48.836;10.092;2024-03-29T14:12:19;2.47;;;1.20;;
12956;SDS011;6543;48.836;10.092;2024-03-29T14:14:51;1.60;;;1.13;;
12956;SDS011;6543;48.836;10.092;2024-03-29T14:17:18;1.97;;;1.27;;
12956;SDS011;6543;48.836;10.092;2024-03-29T14:19:47;0.90;;;0.83;;
12956;SDS011;6543;48.836;10.092;2024-03-29T14:22:16;1.17;;;1.00;;
12956;SDS011;6543;48.836;10.092;2024-03-29T14:24:44;1.30;;;1.20;;
12956;SDS011;6543;48.836;10.092;2024-03-29T14:27:11;1.73;;;1.03;;
12956;SDS011;6543;48.836;10.092;2024-03-29T14:29:41;4.97;;;1.10;;
12956;SDS011;6543;48.836;10.092;2024-03-29T14:32:10;1.20;;;1.10;;
12956;SDS011;6543;48.836;10.092;2024-03-29T14:34:37;2.43;;;1.30;;
12956;SDS011;6543;48.836;10.092;2024-03-29T14:37:11;1.87;;;1.37;;
12956;SDS011;6543;48.836;10.092;2024-03-29T14:39:42;1.47;;;1.10;;
12956;SDS011;6543;48.836;10.092;2024-03-29T14:42:10;2.20;;;1.10;;
12956;SDS011;6543;48.836;10.092;2024-03-29T14:44:39;2.53;;;1.10;;
12956;SDS011;6543;48.836;10.092;2024-03-29T14:47:09;2.10;;;0.93;;
12956;SDS011;6543;48.836;10.092;2024-03-29T14:49:42;1.67;;;1.00;;
12956;SDS011;6543;48.836;10.092;2024-03-29T14:52:10;1.80;;;1.10;;
12956;SDS011;6543;48.836;10.092;2024-03-29T14:54:37;1.50;;;1.20;;
12956;SDS011;6543;48.836;10.092;2024-03-29T14:57:05;1.10;;;1.00;;
12956;SDS011;6543;48.836;10.092;2024-03-29T14:59:32;1.87;;;1.23;;
12956;SDS011;6543;48.836;10.092;2024-03-29T15:01:59;1.07;;;0.90;;
12956;SDS011;6543;48.836;10.092;2024-03-29T15:04:26;1.27;;;1.13;;
12956;SDS011;6543;48.836;10.092;2024-03-29T15:06:53;2.87;;;1.10;;
12956;SDS011;6543;48.836;10.092;2024-03-29T15:09:22;1.07;;;0.97;;